Time;durP1;ratioP1;P1;durP2;ratioP2;P2;SDS_P1;SDS_P2;PMS_P1;PMS_P2;Temp;Humidity;BMP_temperature;BMP_pressure;BME280_temperature;BME280_humidity;BME280_pressure;Samples;Min_cycle;Max_cycle;Signal;HPM_P1;HPM_P2
2021/05/22 00:02:01;;;;;;;4.78;2.90;;;;;;;;;;4991260;28;20030;-76
2021/05/22 00:04:27;;;;;;;4.75;2.92;;;;;;;;;;4980027;28;20069;-77
2021/05/22 00:06:53;;;;;;;3.55;2.58;;;;;;;;;;4999956;28;20062;-76
2021/05/22 00:09:19;;;;;;;5.93;3.00;;;;;;;;;;4983406;28;20502;-77
2021/05/22 00:11:46;;;;;;;6.78;2.80;;;;;;;;;;5000366;28;20622;-77
2021/05/22 00:14:12;;;;;;;5.47;2.78;;;;;;;;;;5003010;28;20031;-76
2021/05/22 00:16:38;;;;;;;4.57;2.65;;;;;;;;;;4996514;28;20049;-77
2021/05/22 00:19:04;;;;;;;3.85;2.45;;;;;;;;;;5001971;28;20093;-76
2021/05/22 00:21:30;;;;;;;4.93;2.42;;;;;;;;;;4995220;28;20118;-78
2021/05/22 00:23:56;;;;;;;2.90;2.53;;;;;;;;;;4996451;28;20030;-76
2021/05/22 00:26:22;;;;;;;4.45;2.50;;;;;;;;;;5003553;28;20031;-77
2021/05/22 00:28:48;;;;;;;4.05;2.15;;;;;;;;;;4984094;28;20030;-77
2021/05/22 00:31:14;;;;;;;6.28;2.38;;;;;;;;;;5002586;28;20036;-76
2021/05/22 00:33:40;;;;;;;4.60;2.60;;;;;;;;;;4977001;28;20081;-77
2021/05/22 00:36:07;;;;;;;5.38;2.45;;;;;;;;;;4979627;28;20026;-76
2021/05/22 00:38:33;;;;;;;2.83;2.20;;;;;;;;;;4976018;28;20045;-76
2021/05/22 00:40:59;;;;;;;2.72;2.15;;;;;;;;;;4982112;28;20018;-76
2021/05/22 00:43:25;;;;;;;3.30;2.30;;;;;;;;;;4980944;28;20173;-76
2021/05/22 00:45:54;;;;;;;3.35;2.33;;;;;;;;;;4982756;28;20415;-77
2021/05/22 00:48:20;;;;;;;4.43;2.53;;;;;;;;;;4968394;28;20038;-76
2021/05/22 00:50:46;;;;;;;5.68;2.35;;;;;;;;;;4983946;28;20034;-77
2021/05/22 00:53:13;;;;;;;5.38;2.33;;;;;;;;;;4982437;28;20035;-77
2021/05/22 00:55:39;;;;;;;3.47;2.03;;;;;;;;;;4981258;28;20038;-76
2021/05/22 00:58:06;;;;;;;3.08;2.20;;;;;;;;;;4980504;28;20027;-77
2021/05/22 01:00:46;;;;;;;3.13;1.90;;;;;;;;;;4982346;28;20039;-77
2021/05/22 01:03:18;;;;;;;3.22;2.30;;;;;;;;;;4978378;28;20543;-76
2021/05/22 01:05:45;;;;;;;3.88;2.38;;;;;;;;;;4978722;28;20019;-78
2021/05/22 01:08:20;;;;;;;3.33;2.15;;;;;;;;;;4983529;28;20037;-77
2021/05/22 01:10:56;;;;;;;3.75;2.25;;;;;;;;;;4981879;28;20034;-77
2021/05/22 01:13:22;;;;;;;2.80;2.15;;;;;;;;;;4982451;28;20101;-76
2021/05/22 01:15:51;;;;;;;3.20;2.10;;;;;;;;;;4977547;28;20038;-77
2021/05/22 01:18:17;;;;;;;4.43;1.90;;;;;;;;;;4983607;28;20026;-77
2021/05/22 01:20:52;;;;;;;3.00;2.10;;;;;;;;;;4981213;28;20089;-76
2021/05/22 01:23:21;;;;;;;4.18;2.10;;;;;;;;;;4976450;28;20498;-76
2021/05/22 01:25:48;;;;;;;3.17;2.05;;;;;;;;;;4973586;28;20081;-76
2021/05/22 01:28:14;;;;;;;5.22;2.42;;;;;;;;;;4980618;28;20035;-76
2021/05/22 01:30:40;;;;;;;4.43;2.08;;;;;;;;;;4981947;28;20396;-77
2021/05/22 01:33:08;;;;;;;2.67;2.00;;;;;;;;;;4977715;28;20113;-76
2021/05/22 01:35:34;;;;;;;2.38;2.00;;;;;;;;;;5001431;28;20030;-77
2021/05/22 01:38:00;;;;;;;3.17;2.08;;;;;;;;;;5005611;28;20045;-77
2021/05/22 01:40:29;;;;;;;5.70;2.20;;;;;;;;;;4993794;28;20057;-77
2021/05/22 01:42:55;;;;;;;4.20;1.95;;;;;;;;;;4996067;28;20027;-76
2021/05/22 01:45:27;;;;;;;4.40;2.03;;;;;;;;;;4992690;28;20053;-77
2021/05/22 01:47:53;;;;;;;6.45;2.28;;;;;;;;;;4983647;28;20046;-76
2021/05/22 01:50:20;;;;;;;3.00;2.13;;;;;;;;;;4982054;28;20074;-77
2021/05/22 01:52:47;;;;;;;3.58;2.15;;;;;;;;;;4994914;28;20019;-76
2021/05/22 01:55:14;;;;;;;3.45;2.20;;;;;;;;;;5001649;28;20026;-77
2021/05/22 01:57:40;;;;;;;2.33;2.10;;;;;;;;;;5001544;28;20056;-77
2021/05/22 02:00:07;;;;;;;3.92;2.50;;;;;;;;;;4983902;28;20030;-76
2021/05/22 02:02:34;;;;;;;3.25;2.05;;;;;;;;;;4996126;28;20030;-77
2021/05/22 02:05:01;;;;;;;2.25;1.77;;;;;;;;;;5001685;28;20118;-77
2021/05/22 02:07:29;;;;;;;6.57;2.05;;;;;;;;;;4980422;28;20054;-77
2021/05/22 02:09:56;;;;;;;2.42;1.90;;;;;;;;;;4966739;28;20034;-77
2021/05/22 02:12:26;;;;;;;3.10;1.90;;;;;;;;;;5000688;28;20026;-77
2021/05/22 02:14:53;;;;;;;2.50;1.83;;;;;;;;;;5000651;28;20022;-77
2021/05/22 02:17:20;;;;;;;1.77;1.67;;;;;;;;;;5000285;28;20049;-77
2021/05/22 02:19:47;;;;;;;4.25;1.92;;;;;;;;;;4980426;28;20084;-77
2021/05/22 02:22:18;;;;;;;2.85;1.98;;;;;;;;;;4979629;28;20033;-77
2021/05/22 02:24:44;;;;;;;3.38;1.80;;;;;;;;;;4991683;28;20038;-77
2021/05/22 02:27:11;;;;;;;2.92;1.80;;;;;;;;;;4964813;28;20033;-76
2021/05/22 02:29:39;;;;;;;3.47;2.00;;;;;;;;;;4968668;28;20038;-75
2021/05/22 02:32:06;;;;;;;4.78;1.85;;;;;;;;;;4977256;28;20033;-76
2021/05/22 02:34:43;;;;;;;3.88;2.05;;;;;;;;;;4990205;28;20042;-76
2021/05/22 02:37:11;;;;;;;3.00;2.00;;;;;;;;;;4998379;28;20031;-75
2021/05/22 02:39:38;;;;;;;4.18;2.00;;;;;;;;;;4994658;28;20035;-76
2021/05/22 02:42:05;;;;;;;6.57;2.28;;;;;;;;;;4988376;28;20031;-76
2021/05/22 02:44:32;;;;;;;9.93;6.10;;;;;;;;;;4997667;28;20026;-76
2021/05/22 02:46:59;;;;;;;6.03;2.85;;;;;;;;;;4998259;28;20031;-76
2021/05/22 02:49:27;;;;;;;4.65;2.03;;;;;;;;;;4998188;28;20042;-75
2021/05/22 02:51:59;;;;;;;5.03;2.45;;;;;;;;;;4998707;28;20050;-76
2021/05/22 02:54:27;;;;;;;3.25;2.22;;;;;;;;;;4997000;28;20032;-78
2021/05/22 02:56:54;;;;;;;3.28;2.05;;;;;;;;;;4977601;28;20023;-76
2021/05/22 02:59:21;;;;;;;20.13;4.90;;;;;;;;;;4999018;28;20036;-77
2021/05/22 03:01:47;;;;;;;5.38;2.33;;;;;;;;;;4998386;28;20074;-77
2021/05/22 03:04:17;;;;;;;3.72;1.90;;;;;;;;;;4998857;28;20022;-76
2021/05/22 03:06:44;;;;;;;3.67;1.85;;;;;;;;;;4998157;28;20045;-76
2021/05/22 03:09:10;;;;;;;5.95;2.30;;;;;;;;;;4998395;28;20186;-76
2021/05/22 03:11:36;;;;;;;4.15;2.17;;;;;;;;;;4998886;28;20026;-77
2021/05/22 03:14:04;;;;;;;2.90;2.00;;;;;;;;;;4999864;28;20479;-76
2021/05/22 03:16:30;;;;;;;5.63;2.00;;;;;;;;;;4997648;28;20026;-76
2021/05/22 03:18:56;;;;;;;6.53;2.30;;;;;;;;;;4997795;28;20089;-76
2021/05/22 03:21:22;;;;;;;9.10;2.92;;;;;;;;;;4998497;28;20038;-75
2021/05/22 03:23:49;;;;;;;6.70;2.17;;;;;;;;;;4978208;28;20026;-76
2021/05/22 03:26:15;;;;;;;7.22;2.42;;;;;;;;;;4995946;28;20030;-76
2021/05/22 03:28:41;;;;;;;8.88;2.33;;;;;;;;;;4980610;28;20046;-76
2021/05/22 03:31:07;;;;;;;6.05;2.40;;;;;;;;;;4996529;28;20030;-76
2021/05/22 03:33:33;;;;;;;8.75;2.55;;;;;;;;;;4997876;28;20048;-76
2021/05/22 03:36:00;;;;;;;6.88;2.33;;;;;;;;;;4989482;28;20034;-76
2021/05/22 03:38:26;;;;;;;4.20;2.47;;;;;;;;;;4986997;28;20037;-76
2021/05/22 03:40:52;;;;;;;3.83;2.03;;;;;;;;;;4980271;28;20038;-76
2021/05/22 03:43:18;;;;;;;3.05;2.20;;;;;;;;;;5000221;28;20124;-76
2021/05/22 03:45:44;;;;;;;6.65;2.38;;;;;;;;;;5001774;28;20988;-76
2021/05/22 03:48:10;;;;;;;4.90;2.38;;;;;;;;;;4982538;28;20026;-77
2021/05/22 03:50:37;;;;;;;4.30;2.70;;;;;;;;;;4978291;28;20050;-75
2021/05/22 03:53:03;;;;;;;5.75;2.53;;;;;;;;;;4995761;28;20022;-75
2021/05/22 03:55:29;;;;;;;6.75;2.80;;;;;;;;;;4999208;28;20049;-76
2021/05/22 03:57:55;;;;;;;11.68;3.67;;;;;;;;;;4982425;28;20070;-75
2021/05/22 04:00:21;;;;;;;8.07;2.60;;;;;;;;;;4998079;28;20038;-75
2021/05/22 04:02:47;;;;;;;6.63;3.20;;;;;;;;;;4996180;28;20061;-76
2021/05/22 04:05:13;;;;;;;6.80;2.30;;;;;;;;;;4998544;28;20727;-75
2021/05/22 04:07:40;;;;;;;6.38;2.25;;;;;;;;;;4999518;28;20034;-76
2021/05/22 04:10:06;;;;;;;3.60;1.92;;;;;;;;;;4994221;28;20054;-76
2021/05/22 04:12:32;;;;;;;6.72;2.15;;;;;;;;;;4992880;28;20026;-76
2021/05/22 04:14:58;;;;;;;9.40;2.60;;;;;;;;;;4999636;28;20380;-76
2021/05/22 04:17:25;;;;;;;6.00;1.90;;;;;;;;;;5002336;28;20023;-76
2021/05/22 04:19:51;;;;;;;5.07;2.50;;;;;;;;;;5002169;28;20030;-76
2021/05/22 04:22:17;;;;;;;7.18;2.40;;;;;;;;;;4991123;28;20424;-76
2021/05/22 04:24:43;;;;;;;3.53;2.30;;;;;;;;;;5000928;28;20037;-76
2021/05/22 04:27:09;;;;;;;12.18;3.00;;;;;;;;;;5000767;28;20018;-76
2021/05/22 04:29:36;;;;;;;7.07;3.03;;;;;;;;;;5001338;28;20099;-76
2021/05/22 04:32:02;;;;;;;8.95;4.90;;;;;;;;;;4990411;28;20026;-76
2021/05/22 04:34:28;;;;;;;5.95;3.88;;;;;;;;;;5000879;28;20054;-77
2021/05/22 04:36:55;;;;;;;5.18;2.60;;;;;;;;;;5001176;28;20030;-76
2021/05/22 04:39:21;;;;;;;5.75;2.45;;;;;;;;;;4978994;28;20039;-76
2021/05/22 04:41:47;;;;;;;6.88;2.70;;;;;;;;;;4998504;28;20023;-77
2021/05/22 04:44:15;;;;;;;8.18;2.67;;;;;;;;;;5003088;28;20033;-76
2021/05/22 04:46:44;;;;;;;8.23;3.13;;;;;;;;;;4982996;28;20015;-77
2021/05/22 04:49:10;;;;;;;11.32;2.75;;;;;;;;;;4986822;28;20033;-76
2021/05/22 04:51:36;;;;;;;6.45;2.35;;;;;;;;;;4989462;28;20122;-71
2021/05/22 04:54:05;;;;;;;6.55;2.40;;;;;;;;;;5011884;28;20030;-77
2021/05/22 04:56:31;;;;;;;2.92;1.90;;;;;;;;;;5009512;28;20027;-77
2021/05/22 04:58:58;;;;;;;5.78;2.22;;;;;;;;;;5013427;28;20021;-73
2021/05/22 05:01:24;;;;;;;3.05;1.85;;;;;;;;;;5012083;28;20023;-74
2021/05/22 05:06:39;;;;;;;11.43;2.53;;;;;;;;;;5116073;23;20495;-74
2021/05/22 05:09:27;;;;;;;6.78;2.35;;;;;;;;;;5011127;28;20061;-83
2021/05/22 05:12:14;;;;;;;9.88;2.67;;;;;;;;;;4956113;28;20456;-77
2021/05/22 05:14:40;;;;;;;4.53;2.47;;;;;;;;;;4959076;28;20035;-78
2021/05/22 05:17:06;;;;;;;9.50;2.70;;;;;;;;;;4951874;29;20062;-75
2021/05/22 05:19:32;;;;;;;8.70;2.75;;;;;;;;;;4945787;28;20034;-76
2021/05/22 05:21:59;;;;;;;6.38;2.53;;;;;;;;;;4950364;29;20043;-78
2021/05/22 05:24:25;;;;;;;5.28;2.20;;;;;;;;;;4951481;28;20027;-74
2021/05/22 05:26:51;;;;;;;5.85;2.42;;;;;;;;;;4949333;29;20107;-72
2021/05/22 05:29:17;;;;;;;8.30;2.30;;;;;;;;;;4946873;29;20050;-73
2021/05/22 05:31:43;;;;;;;4.47;2.70;;;;;;;;;;4950278;29;20099;-75
2021/05/22 05:34:10;;;;;;;7.25;2.20;;;;;;;;;;4934108;29;20495;-76
2021/05/22 05:36:36;;;;;;;7.13;1.95;;;;;;;;;;4938827;29;20034;-73
2021/05/22 05:39:02;;;;;;;10.07;2.67;;;;;;;;;;4936383;29;20107;-73
2021/05/22 05:41:28;;;;;;;6.18;2.17;;;;;;;;;;4936625;29;20042;-72
2021/05/22 05:43:54;;;;;;;3.05;1.98;;;;;;;;;;4958156;28;20569;-71
2021/05/22 05:46:20;;;;;;;1.75;1.63;;;;;;;;;;4973016;28;20023;-72
2021/05/22 05:48:47;;;;;;;3.95;2.17;;;;;;;;;;4966648;28;20059;-74
2021/05/22 05:51:13;;;;;;;5.88;2.30;;;;;;;;;;4972401;28;20037;-73
2021/05/22 05:53:39;;;;;;;6.05;2.20;;;;;;;;;;4967912;28;20031;-78
2021/05/22 05:56:06;;;;;;;6.07;2.80;;;;;;;;;;4971618;28;20109;-76
2021/05/22 05:58:35;;;;;;;5.22;2.40;;;;;;;;;;4968710;28;20045;-79
2021/05/22 06:01:07;;;;;;;6.55;2.60;;;;;;;;;;4963822;28;20035;-80
2021/05/22 06:03:33;;;;;;;5.47;2.03;;;;;;;;;;4968022;28;20057;-82
2021/05/22 06:05:59;;;;;;;4.88;2.10;;;;;;;;;;4965940;28;20055;-86
2021/05/22 06:08:26;;;;;;;5.85;2.00;;;;;;;;;;4977876;28;20393;-89
2021/05/22 06:10:53;;;;;;;6.07;2.17;;;;;;;;;;4985482;28;20495;-86
2021/05/22 06:13:26;;;;;;;4.68;2.10;;;;;;;;;;4970902;28;20031;-83
2021/05/22 06:18:32;;;;;;;5.28;1.80;;;;;;;;;;4973839;28;20059;-72
2021/05/22 06:20:59;;;;;;;6.47;2.00;;;;;;;;;;4971882;28;20045;-78
2021/05/22 06:23:25;;;;;;;4.10;1.90;;;;;;;;;;4960994;28;20047;-73
2021/05/22 06:25:51;;;;;;;3.75;2.15;;;;;;;;;;4974085;28;20027;-84
2021/05/22 06:28:18;;;;;;;9.45;2.00;;;;;;;;;;4988168;28;20089;-85
2021/05/22 06:30:46;;;;;;;1.88;1.63;;;;;;;;;;4972255;28;20539;-80
2021/05/22 06:33:12;;;;;;;4.18;1.70;;;;;;;;;;4964193;28;20110;-82
2021/05/22 06:35:38;;;;;;;6.20;2.10;;;;;;;;;;4974366;28;20033;-83
2021/05/22 06:38:04;;;;;;;2.75;1.92;;;;;;;;;;4964877;28;20070;-81
2021/05/22 06:40:31;;;;;;;7.30;2.50;;;;;;;;;;4961701;28;20429;-84
2021/05/22 06:42:57;;;;;;;8.25;2.70;;;;;;;;;;4973028;28;20106;-85
2021/05/22 06:45:25;;;;;;;7.50;2.60;;;;;;;;;;4985350;28;20081;-74
2021/05/22 06:47:51;;;;;;;5.30;2.03;;;;;;;;;;4969768;28;20046;-70
2021/05/22 06:50:18;;;;;;;7.47;2.00;;;;;;;;;;4968382;28;20050;-84
2021/05/22 06:52:44;;;;;;;5.55;2.53;;;;;;;;;;4972728;28;20019;-75
2021/05/22 06:55:11;;;;;;;5.93;2.38;;;;;;;;;;4964633;28;20034;-81
2021/05/22 06:57:37;;;;;;;2.63;1.90;;;;;;;;;;4987227;28;20019;-87
2021/05/22 07:00:04;;;;;;;5.72;2.17;;;;;;;;;;4972576;28;20034;-81
2021/05/22 07:02:31;;;;;;;4.25;2.10;;;;;;;;;;4971316;28;20400;-81
2021/05/22 07:04:57;;;;;;;9.13;2.10;;;;;;;;;;4972382;28;20468;-76
2021/05/22 07:07:23;;;;;;;3.60;2.00;;;;;;;;;;4987072;28;20748;-77
2021/05/22 07:09:49;;;;;;;5.72;2.50;;;;;;;;;;4971119;28;20045;-79
2021/05/22 07:12:15;;;;;;;3.05;2.00;;;;;;;;;;4986051;28;20113;-77
2021/05/22 07:14:41;;;;;;;3.03;1.90;;;;;;;;;;4967093;28;20483;-81
2021/05/22 07:17:07;;;;;;;6.72;1.60;;;;;;;;;;4983309;28;20035;-79
2021/05/22 07:19:33;;;;;;;4.25;1.90;;;;;;;;;;4987663;28;20023;-80
2021/05/22 07:21:59;;;;;;;3.83;1.58;;;;;;;;;;4984664;28;20050;-72
2021/05/22 07:24:25;;;;;;;2.55;1.70;;;;;;;;;;4968269;28;20034;-73
2021/05/22 07:26:51;;;;;;;4.00;1.70;;;;;;;;;;4965783;28;20498;-79
2021/05/22 07:29:18;;;;;;;2.05;1.60;;;;;;;;;;4967262;28;20394;-71
2021/05/22 07:31:44;;;;;;;12.43;2.05;;;;;;;;;;4970205;28;20026;-72
2021/05/22 07:34:11;;;;;;;6.82;3.13;;;;;;;;;;4969372;28;20038;-80
2021/05/22 07:36:38;;;;;;;4.93;2.45;;;;;;;;;;4969892;28;20023;-80
2021/05/22 07:39:06;;;;;;;6.20;2.47;;;;;;;;;;4967838;28;20391;-87
2021/05/22 07:41:34;;;;;;;4.95;1.90;;;;;;;;;;4975833;28;20515;-82
2021/05/22 07:44:00;;;;;;;7.55;2.70;;;;;;;;;;4984549;28;20038;-84
2021/05/22 07:46:26;;;;;;;2.97;2.00;;;;;;;;;;4956443;28;20041;-79
2021/05/22 07:48:53;;;;;;;3.45;2.22;;;;;;;;;;4967562;28;20110;-81
2021/05/22 07:51:19;;;;;;;3.10;2.28;;;;;;;;;;4967974;28;20054;-80
2021/05/22 07:53:45;;;;;;;5.43;2.35;;;;;;;;;;4969091;28;20024;-78
2021/05/22 07:56:11;;;;;;;5.35;2.20;;;;;;;;;;4982814;28;20114;-79
2021/05/22 07:58:37;;;;;;;2.65;1.88;;;;;;;;;;4966897;28;20392;-78
2021/05/22 08:01:03;;;;;;;5.10;2.80;;;;;;;;;;4962493;28;20038;-77
2021/05/22 08:03:29;;;;;;;7.45;3.17;;;;;;;;;;4965008;28;20077;-79
2021/05/22 08:05:55;;;;;;;7.88;2.78;;;;;;;;;;4965107;28;20123;-78
2021/05/22 08:08:22;;;;;;;6.97;2.85;;;;;;;;;;4971064;28;20054;-75
2021/05/22 08:10:48;;;;;;;4.22;2.30;;;;;;;;;;4977108;28;20034;-75
2021/05/22 08:13:14;;;;;;;5.60;2.38;;;;;;;;;;4970758;28;20137;-80
2021/05/22 08:15:41;;;;;;;3.47;2.28;;;;;;;;;;4972243;28;20034;-75
2021/05/22 08:18:07;;;;;;;4.20;2.47;;;;;;;;;;4969557;28;20034;-88
2021/05/22 08:20:33;;;;;;;5.60;2.75;;;;;;;;;;4970513;28;20026;-74
2021/05/22 08:22:59;;;;;;;7.38;3.15;;;;;;;;;;4969764;28;20373;-76
2021/05/22 08:25:26;;;;;;;9.15;3.25;;;;;;;;;;4971501;28;20026;-77
2021/05/22 08:27:53;;;;;;;6.93;2.88;;;;;;;;;;4964931;28;20031;-77
2021/05/22 08:30:20;;;;;;;7.03;2.55;;;;;;;;;;4966563;28;20069;-74
2021/05/22 08:32:46;;;;;;;3.88;2.42;;;;;;;;;;4963819;28;20093;-79
2021/05/22 08:35:13;;;;;;;3.03;1.98;;;;;;;;;;4966931;28;20050;-78
2021/05/22 08:37:40;;;;;;;3.40;2.33;;;;;;;;;;4972413;28;20074;-78
2021/05/22 08:40:07;;;;;;;4.65;1.77;;;;;;;;;;4972528;28;20038;-79
2021/05/22 08:42:33;;;;;;;3.80;2.38;;;;;;;;;;4977427;28;20082;-78
2021/05/22 08:45:13;;;;;;;3.50;1.98;;;;;;;;;;4972770;28;20039;-75
2021/05/22 08:47:40;;;;;;;5.25;2.03;;;;;;;;;;4985330;28;20085;-77
2021/05/22 08:50:08;;;;;;;7.05;2.30;;;;;;;;;;4966848;28;20069;-76
2021/05/22 08:52:34;;;;;;;4.85;2.00;;;;;;;;;;4970468;28;20081;-77
2021/05/22 08:55:00;;;;;;;5.82;2.53;;;;;;;;;;4981508;28;20027;-75
2021/05/22 08:57:26;;;;;;;3.97;2.28;;;;;;;;;;4970763;28;20599;-79
2021/05/22 08:59:52;;;;;;;2.53;1.88;;;;;;;;;;4975120;28;20062;-76
2021/05/22 09:02:20;;;;;;;4.28;1.92;;;;;;;;;;4968385;28;20033;-75
2021/05/22 09:05:05;;;;;;;6.15;2.13;;;;;;;;;;4977448;28;20052;-75
2021/05/22 09:07:37;;;;;;;4.60;2.42;;;;;;;;;;4974558;28;20397;-75
2021/05/22 09:10:08;;;;;;;3.20;2.30;;;;;;;;;;4982609;28;20377;-75
2021/05/22 09:12:38;;;;;;;3.63;1.80;;;;;;;;;;4978830;28;20019;-76
2021/05/22 09:15:09;;;;;;;4.47;2.00;;;;;;;;;;4985093;28;20054;-75
2021/05/22 09:17:36;;;;;;;3.50;2.10;;;;;;;;;;4974404;28;20022;-74
2021/05/22 09:20:18;;;;;;;6.65;2.50;;;;;;;;;;4974950;28;20031;-75
2021/05/22 09:22:44;;;;;;;6.75;2.25;;;;;;;;;;4977877;28;20093;-75
2021/05/22 09:25:12;;;;;;;5.47;1.95;;;;;;;;;;4975828;28;20058;-74
2021/05/22 09:27:40;;;;;;;5.90;2.22;;;;;;;;;;4974857;28;20052;-77
2021/05/22 09:30:09;;;;;;;2.88;1.70;;;;;;;;;;4983097;28;20400;-75
2021/05/22 09:32:35;;;;;;;3.40;1.80;;;;;;;;;;4985466;28;20028;-74
2021/05/22 09:35:01;;;;;;;11.98;2.47;;;;;;;;;;4983703;28;20048;-74
2021/05/22 09:37:27;;;;;;;4.63;2.20;;;;;;;;;;4989352;28;20348;-76
2021/05/22 09:39:54;;;;;;;3.75;2.00;;;;;;;;;;4970352;28;20039;-74
2021/05/22 09:42:31;;;;;;;4.55;2.80;;;;;;;;;;4967220;28;20062;-75
2021/05/22 09:45:01;;;;;;;5.65;3.05;;;;;;;;;;4976138;28;20026;-76
2021/05/22 09:47:27;;;;;;;5.68;2.58;;;;;;;;;;4974112;28;20440;-77
2021/05/22 09:49:53;;;;;;;7.15;2.30;;;;;;;;;;4986805;28;20034;-74
2021/05/22 09:52:19;;;;;;;5.22;1.90;;;;;;;;;;4976864;28;20058;-77
2021/05/22 09:54:49;;;;;;;2.85;1.80;;;;;;;;;;4984783;28;20026;-76
2021/05/22 09:57:45;;;;;;;5.95;2.33;;;;;;;;;;4977049;28;20035;-80
2021/05/22 10:00:15;;;;;;;6.28;2.10;;;;;;;;;;4986146;28;20142;-76
2021/05/22 10:02:47;;;;;;;4.28;1.85;;;;;;;;;;4974604;28;20034;-77
2021/05/22 10:05:18;;;;;;;3.97;2.05;;;;;;;;;;4978803;28;20030;-76
2021/05/22 10:07:45;;;;;;;3.45;1.80;;;;;;;;;;4976065;28;20344;-76
2021/05/22 10:10:11;;;;;;;4.28;2.00;;;;;;;;;;4974802;28;20043;-76
2021/05/22 10:12:39;;;;;;;5.47;1.90;;;;;;;;;;4965187;28;20067;-77
2021/05/22 10:15:06;;;;;;;8.10;2.22;;;;;;;;;;4971841;28;20031;-77
2021/05/22 10:17:32;;;;;;;2.85;1.90;;;;;;;;;;4971386;28;20029;-79
2021/05/22 10:19:58;;;;;;;2.47;1.80;;;;;;;;;;4969406;28;20037;-79
2021/05/22 10:22:24;;;;;;;4.97;2.35;;;;;;;;;;4971960;28;20073;-77
2021/05/22 10:24:52;;;;;;;6.57;2.13;;;;;;;;;;4968292;28;20514;-78
2021/05/22 10:27:20;;;;;;;5.47;2.00;;;;;;;;;;4970012;28;20533;-78
2021/05/22 10:29:46;;;;;;;7.43;2.33;;;;;;;;;;4966131;28;20101;-74
2021/05/22 10:32:21;;;;;;;12.13;2.67;;;;;;;;;;4973372;28;20026;-73
2021/05/22 10:34:49;;;;;;;2.30;1.65;;;;;;;;;;4974415;28;20038;-73
2021/05/22 10:37:37;;;;;;;5.78;2.53;;;;;;;;;;4975991;28;20427;-74
2021/05/22 10:40:04;;;;;;;5.20;2.28;;;;;;;;;;4972697;28;20030;-74
2021/05/22 10:42:30;;;;;;;7.50;2.35;;;;;;;;;;4986358;28;20023;-75
2021/05/22 10:44:57;;;;;;;7.30;2.63;;;;;;;;;;4974563;28;20019;-74
2021/05/22 10:47:27;;;;;;;7.30;2.40;;;;;;;;;;4967485;28;20023;-74
2021/05/22 10:50:05;;;;;;;7.50;2.22;;;;;;;;;;4966873;28;20038;-77
2021/05/22 10:52:32;;;;;;;5.15;2.45;;;;;;;;;;4966721;28;20839;-78
2021/05/22 10:55:04;;;;;;;4.88;2.50;;;;;;;;;;4960916;28;20152;-74
2021/05/22 10:57:32;;;;;;;6.50;2.97;;;;;;;;;;4961196;28;20499;-76
2021/05/22 11:00:18;;;;;;;5.50;2.50;;;;;;;;;;4957289;28;20019;-78
2021/05/22 11:02:46;;;;;;;3.38;2.30;;;;;;;;;;4963513;28;20019;-78
2021/05/22 11:05:27;;;;;;;7.28;2.50;;;;;;;;;;4965883;28;20069;-76
2021/05/22 11:08:05;;;;;;;6.53;2.38;;;;;;;;;;4961951;28;20118;-76
2021/05/22 11:10:35;;;;;;;6.22;2.40;;;;;;;;;;4956574;28;20062;-77
2021/05/22 11:13:01;;;;;;;5.10;2.53;;;;;;;;;;4953851;28;20147;-77
2021/05/22 11:15:46;;;;;;;12.30;2.63;;;;;;;;;;4962016;28;20027;-76
2021/05/22 11:18:14;;;;;;;8.25;2.50;;;;;;;;;;4955257;28;20041;-75
2021/05/22 11:20:41;;;;;;;5.20;2.88;;;;;;;;;;4963874;28;20039;-75
2021/05/22 11:23:07;;;;;;;7.63;2.90;;;;;;;;;;4957371;28;20400;-77
2021/05/22 11:25:44;;;;;;;7.40;2.65;;;;;;;;;;4957174;28;20042;-76
2021/05/22 11:28:17;;;;;;;7.93;2.20;;;;;;;;;;4959985;28;20073;-74
2021/05/22 11:30:44;;;;;;;4.50;2.20;;;;;;;;;;4963604;28;20035;-77
2021/05/22 11:33:11;;;;;;;2.78;2.10;;;;;;;;;;4961380;28;20022;-76
2021/05/22 11:35:41;;;;;;;10.32;2.58;;;;;;;;;;4960532;28;20124;-74
2021/05/22 11:38:13;;;;;;;32.00;3.78;;;;;;;;;;4959002;28;20035;-78
2021/05/22 11:40:39;;;;;;;10.27;2.95;;;;;;;;;;4972235;28;20027;-81
2021/05/22 11:43:11;;;;;;;6.55;3.28;;;;;;;;;;4970432;28;20026;-74
2021/05/22 11:45:37;;;;;;;6.78;2.50;;;;;;;;;;4971075;28;20042;-71
2021/05/22 11:48:20;;;;;;;10.00;2.30;;;;;;;;;;4964804;28;20142;-71
2021/05/22 11:50:46;;;;;;;6.10;2.33;;;;;;;;;;4975786;28;20038;-71
2021/05/22 11:53:17;;;;;;;4.53;2.30;;;;;;;;;;4968843;28;20027;-71
2021/05/22 11:55:43;;;;;;;3.72;2.10;;;;;;;;;;4963957;28;20027;-69
2021/05/22 11:58:13;;;;;;;11.40;2.58;;;;;;;;;;4965039;28;20019;-71
2021/05/22 12:00:42;;;;;;;9.00;2.20;;;;;;;;;;4971161;28;20035;-71
2021/05/22 12:03:08;;;;;;;8.65;4.22;;;;;;;;;;4965023;28;20073;-71
2021/05/22 12:05:38;;;;;;;4.25;2.15;;;;;;;;;;4976127;28;20097;-71
2021/05/22 12:08:04;;;;;;;10.57;3.63;;;;;;;;;;4976992;28;20543;-71
2021/05/22 12:10:30;;;;;;;4.78;2.47;;;;;;;;;;4986986;28;20038;-69
2021/05/22 12:13:00;;;;;;;5.40;2.55;;;;;;;;;;4982672;28;20019;-69
2021/05/22 12:15:27;;;;;;;8.75;3.42;;;;;;;;;;4983278;28;20041;-71
2021/05/22 12:17:56;;;;;;;7.03;3.10;;;;;;;;;;4983066;28;20105;-71
2021/05/22 12:20:24;;;;;;;4.15;2.50;;;;;;;;;;4979483;28;20018;-69
2021/05/22 12:22:50;;;;;;;3.72;2.22;;;;;;;;;;4981705;28;20020;-69
2021/05/22 12:25:16;;;;;;;6.40;2.35;;;;;;;;;;4987294;28;20479;-70
2021/05/22 12:27:42;;;;;;;4.28;2.05;;;;;;;;;;4979603;28;20038;-71
2021/05/22 12:30:09;;;;;;;7.40;2.60;;;;;;;;;;4969554;28;20090;-71
2021/05/22 12:32:35;;;;;;;4.07;2.10;;;;;;;;;;4967809;28;20381;-71
2021/05/22 12:35:04;;;;;;;6.65;2.40;;;;;;;;;;4976570;28;20041;-69
2021/05/22 12:37:30;;;;;;;4.95;2.20;;;;;;;;;;4974163;28;20047;-69
2021/05/22 12:39:58;;;;;;;4.78;2.22;;;;;;;;;;4982178;28;20030;-71
2021/05/22 12:42:25;;;;;;;3.58;2.20;;;;;;;;;;4993814;28;20026;-71
2021/05/22 12:44:54;;;;;;;6.40;2.58;;;;;;;;;;4978929;28;20076;-71
2021/05/22 12:47:24;;;;;;;5.35;2.20;;;;;;;;;;4981022;28;20031;-69
2021/05/22 12:49:57;;;;;;;8.50;2.42;;;;;;;;;;4980875;28;20030;-69
2021/05/22 12:52:24;;;;;;;5.72;2.17;;;;;;;;;;4980646;28;20019;-70
2021/05/22 12:54:50;;;;;;;5.05;2.40;;;;;;;;;;4981468;28;20045;-69
2021/05/22 12:57:20;;;;;;;4.78;2.30;;;;;;;;;;4979641;28;20027;-69
2021/05/22 12:59:56;;;;;;;3.47;1.92;;;;;;;;;;4981610;28;20019;-71
2021/05/22 13:02:26;;;;;;;5.57;2.20;;;;;;;;;;4980369;28;20059;-71
2021/05/22 13:04:56;;;;;;;4.10;2.22;;;;;;;;;;4983201;28;20025;-69
2021/05/22 13:07:27;;;;;;;5.95;2.25;;;;;;;;;;4977615;28;20035;-69
2021/05/22 13:09:55;;;;;;;3.53;2.20;;;;;;;;;;4976747;28;20579;-71
2021/05/22 13:12:21;;;;;;;8.07;2.38;;;;;;;;;;4983077;28;20109;-71
2021/05/22 13:14:51;;;;;;;7.63;3.58;;;;;;;;;;4982528;28;20510;-71
2021/05/22 13:17:17;;;;;;;6.57;3.25;;;;;;;;;;4970063;28;20073;-73
2021/05/22 13:19:48;;;;;;;8.93;3.17;;;;;;;;;;4970723;28;20460;-70
2021/05/22 13:22:28;;;;;;;7.72;3.15;;;;;;;;;;4983411;28;20420;-70
2021/05/22 13:25:20;;;;;;;5.90;2.63;;;;;;;;;;4975696;28;20084;-71
2021/05/22 13:28:04;;;;;;;4.55;2.42;;;;;;;;;;4975341;28;20047;-71
2021/05/22 13:30:32;;;;;;;5.95;2.63;;;;;;;;;;4978985;28;20390;-71
2021/05/22 13:32:59;;;;;;;4.47;2.20;;;;;;;;;;4977713;28;20034;-68
2021/05/22 13:35:27;;;;;;;3.53;2.25;;;;;;;;;;4977264;28;20033;-71
2021/05/22 13:37:54;;;;;;;8.63;2.70;;;;;;;;;;4965711;28;20122;-71
2021/05/22 13:40:20;;;;;;;5.97;2.92;;;;;;;;;;4984247;28;20516;-71
2021/05/22 13:42:46;;;;;;;4.97;2.10;;;;;;;;;;4988649;28;20038;-74
2021/05/22 13:45:13;;;;;;;4.68;2.42;;;;;;;;;;4981437;28;20031;-71
2021/05/22 13:47:39;;;;;;;10.75;3.72;;;;;;;;;;4982056;28;20095;-72
2021/05/22 13:50:07;;;;;;;7.60;2.83;;;;;;;;;;4981102;28;20030;-73
2021/05/22 13:52:33;;;;;;;8.40;3.08;;;;;;;;;;4983024;28;20022;-73
2021/05/22 13:54:59;;;;;;;9.52;3.13;;;;;;;;;;4975760;28;20058;-73
2021/05/22 13:57:25;;;;;;;6.25;2.70;;;;;;;;;;4978308;28;20436;-73
2021/05/22 13:59:52;;;;;;;8.73;3.20;;;;;;;;;;4983331;28;20482;-71
2021/05/22 14:02:18;;;;;;;11.82;3.92;;;;;;;;;;4975426;28;20015;-69
2021/05/22 14:04:44;;;;;;;16.98;3.45;;;;;;;;;;4980710;28;20034;-73
2021/05/22 14:07:10;;;;;;;4.65;3.08;;;;;;;;;;4980889;28;20035;-70
2021/05/22 14:09:37;;;;;;;6.18;3.20;;;;;;;;;;4977094;28;20511;-71
2021/05/22 14:12:03;;;;;;;7.30;3.80;;;;;;;;;;4980220;28;20026;-70
2021/05/22 14:14:29;;;;;;;7.32;3.38;;;;;;;;;;4977734;28;20162;-72
2021/05/22 14:16:55;;;;;;;7.80;2.60;;;;;;;;;;4967392;28;20022;-70
2021/05/22 14:19:21;;;;;;;8.95;2.65;;;;;;;;;;4963450;28;20398;-69
2021/05/22 14:21:47;;;;;;;6.93;3.03;;;;;;;;;;4968192;28;20510;-69
2021/05/22 14:24:13;;;;;;;7.50;3.00;;;;;;;;;;4968639;28;20023;-70
2021/05/22 14:26:39;;;;;;;9.98;3.80;;;;;;;;;;4963057;28;20573;-71
2021/05/22 14:29:06;;;;;;;6.93;3.53;;;;;;;;;;4964785;28;20368;-72
2021/05/22 14:31:32;;;;;;;8.18;3.30;;;;;;;;;;4956165;28;20035;-71
2021/05/22 14:33:58;;;;;;;8.05;3.50;;;;;;;;;;4968315;28;20073;-71
2021/05/22 14:36:24;;;;;;;9.40;3.25;;;;;;;;;;4959742;28;20106;-69
2021/05/22 14:38:50;;;;;;;7.90;2.97;;;;;;;;;;4967629;28;20415;-71
2021/05/22 14:41:16;;;;;;;9.95;3.20;;;;;;;;;;4973541;28;20019;-71
2021/05/22 14:43:42;;;;;;;10.93;2.60;;;;;;;;;;4981263;28;20093;-71
2021/05/22 14:46:08;;;;;;;4.35;2.45;;;;;;;;;;4983336;28;20106;-71
2021/05/22 14:48:35;;;;;;;5.53;2.50;;;;;;;;;;4977399;28;20110;-69
2021/05/22 14:51:01;;;;;;;5.93;2.60;;;;;;;;;;4982465;28;20430;-71
2021/05/22 14:53:27;;;;;;;7.70;2.70;;;;;;;;;;4984907;28;20031;-70